createdAt,value
2018-07-07T00:00:20.747Z,65.90
2018-07-07T00:02:49.394Z,66.30
2018-07-07T00:05:18.342Z,65.81
2018-07-07T00:07:47.057Z,65.74
2018-07-07T00:10:16.221Z,66.13
2018-07-07T00:12:45.151Z,66.14
2018-07-07T00:15:18.227Z,65.70
2018-07-07T00:17:47.444Z,65.69
2018-07-07T00:20:16.548Z,65.95
2018-07-07T00:22:45.601Z,65.60
2018-07-07T00:25:15.820Z,65.48
2018-07-07T00:27:45.457Z,65.60
2018-07-07T00:30:14.138Z,65.52
2018-07-07T00:32:42.850Z,65.79
2018-07-07T00:35:11.813Z,65.83
2018-07-07T00:37:40.551Z,65.45
2018-07-07T00:40:10.093Z,66.28
2018-07-07T00:42:39.427Z,65.70
2018-07-07T00:45:08.129Z,65.90
2018-07-07T00:47:36.823Z,65.94
2018-07-07T00:50:05.854Z,66.15
2018-07-07T00:52:34.796Z,66.09
2018-07-07T00:55:03.833Z,65.89
2018-07-07T00:57:32.495Z,66.03
2018-07-07T01:00:01.232Z,66.04
2018-07-07T01:02:29.924Z,66.15
2018-07-07T01:04:58.570Z,65.94
2018-07-07T01:07:27.232Z,66.08
2018-07-07T01:09:55.885Z,65.98
2018-07-07T01:12:24.619Z,65.86
2018-07-07T01:14:53.249Z,65.85
2018-07-07T01:17:22.069Z,65.56
2018-07-07T01:19:50.880Z,65.89
2018-07-07T01:22:19.528Z,66.16
2018-07-07T01:24:48.240Z,66.48
2018-07-07T01:27:16.915Z,66.67
2018-07-07T01:29:45.593Z,66.99
2018-07-07T01:32:14.285Z,67.00
2018-07-07T01:34:42.975Z,66.98
2018-07-07T01:37:11.552Z,66.70
2018-07-07T01:39:40.257Z,67.42
2018-07-07T01:42:09.244Z,67.63
2018-07-07T01:44:37.938Z,67.74
2018-07-07T01:47:06.577Z,66.96
2018-07-07T01:49:35.232Z,67.67
2018-07-07T01:52:03.896Z,67.33
2018-07-07T01:54:32.608Z,67.14
2018-07-07T01:57:01.382Z,67.27
2018-07-07T01:59:30.014Z,66.92
2018-07-07T02:01:59.625Z,67.16
2018-07-07T02:04:28.541Z,67.13
2018-07-07T02:06:57.123Z,66.99
2018-07-07T02:09:25.728Z,66.85
2018-07-07T02:11:54.399Z,67.22
2018-07-07T02:14:23.087Z,67.40
2018-07-07T02:16:51.793Z,67.13
2018-07-07T02:19:20.565Z,67.35
2018-07-07T02:21:49.193Z,67.56
2018-07-07T02:24:17.868Z,67.17
2018-07-07T02:26:46.763Z,67.62
2018-07-07T02:29:15.395Z,67.94
2018-07-07T02:31:44.010Z,67.78
2018-07-07T02:34:12.700Z,67.79
2018-07-07T02:36:41.574Z,68.07
2018-07-07T02:39:10.250Z,68.20
2018-07-07T02:41:38.999Z,68.31
2018-07-07T02:44:07.495Z,68.60
2018-07-07T02:46:36.329Z,68.34
2018-07-07T02:49:04.919Z,68.32
2018-07-07T02:51:33.640Z,68.75
2018-07-07T02:54:02.399Z,68.76
2018-07-07T02:56:31.195Z,68.68
2018-07-07T02:58:59.858Z,68.87
2018-07-07T03:01:28.674Z,68.76
2018-07-07T03:03:57.264Z,68.91
2018-07-07T03:06:25.946Z,68.75
2018-07-07T03:08:54.763Z,68.90
2018-07-07T03:11:23.439Z,68.79
2018-07-07T03:13:52.481Z,68.89
2018-07-07T03:16:21.097Z,68.63
2018-07-07T03:18:49.885Z,68.59
2018-07-07T03:21:18.653Z,68.44
2018-07-07T03:23:47.231Z,67.88
2018-07-07T03:26:15.999Z,68.03
2018-07-07T03:28:44.778Z,67.79
2018-07-07T03:31:13.560Z,67.36
2018-07-07T03:33:42.194Z,66.98
2018-07-07T03:36:10.805Z,66.80
2018-07-07T03:38:39.537Z,67.09
2018-07-07T03:41:08.164Z,66.62
2018-07-07T03:43:37.136Z,66.62
2018-07-07T03:46:05.980Z,66.89
2018-07-07T03:48:34.656Z,66.06
2018-07-07T03:51:03.339Z,65.90
2018-07-07T03:53:31.966Z,65.74
2018-07-07T03:56:00.718Z,65.83
2018-07-07T03:58:29.459Z,65.62
2018-07-07T04:00:58.071Z,65.34
2018-07-07T04:03:26.798Z,65.00
2018-07-07T04:05:55.509Z,64.79
2018-07-07T04:08:24.242Z,64.62
2018-07-07T04:10:52.942Z,64.54
2018-07-07T04:13:21.529Z,64.47
2018-07-07T04:15:50.227Z,64.42
2018-07-07T04:18:25.781Z,64.14
2018-07-07T04:20:54.423Z,64.31
2018-07-07T04:23:23.028Z,63.79
2018-07-07T04:25:51.740Z,64.15
2018-07-07T04:28:20.504Z,63.92
2018-07-07T04:30:55.436Z,63.99
2018-07-07T04:33:24.167Z,63.58
2018-07-07T04:35:52.897Z,63.64
2018-07-07T04:38:21.532Z,63.20
2018-07-07T04:40:50.532Z,62.96
2018-07-07T04:43:19.865Z,63.36
2018-07-07T04:45:48.583Z,62.75
2018-07-07T04:48:17.323Z,62.87
2018-07-07T04:50:46.477Z,62.28
2018-07-07T04:53:15.165Z,62.30
2018-07-07T04:55:43.793Z,62.15
2018-07-07T04:58:12.420Z,61.98
2018-07-07T05:00:41.131Z,61.60
2018-07-07T05:03:09.792Z,61.56
2018-07-07T05:05:38.428Z,61.58
2018-07-07T05:08:07.030Z,60.82
2018-07-07T05:10:35.723Z,61.26
2018-07-07T05:13:04.430Z,60.81
2018-07-07T05:15:33.133Z,60.92
2018-07-07T05:18:01.850Z,60.99
2018-07-07T05:20:30.685Z,60.47
2018-07-07T05:22:59.349Z,60.06
2018-07-07T05:25:27.927Z,60.42
2018-07-07T05:27:56.589Z,60.33
2018-07-07T05:30:25.308Z,59.67
2018-07-07T05:32:53.931Z,59.02
2018-07-07T05:35:22.686Z,58.78
2018-07-07T05:37:51.400Z,59.05
2018-07-07T05:40:20.116Z,59.40
2018-07-07T05:42:49.098Z,58.86
2018-07-07T05:45:17.800Z,58.29
2018-07-07T05:47:46.609Z,58.65
2018-07-07T05:50:15.213Z,58.67
2018-07-07T05:52:43.882Z,58.50
2018-07-07T05:55:12.565Z,57.53
2018-07-07T05:57:41.167Z,56.60
2018-07-07T06:00:09.945Z,57.28
2018-07-07T06:02:38.945Z,57.89
2018-07-07T06:05:07.588Z,57.61
2018-07-07T06:07:36.334Z,57.22
2018-07-07T06:10:04.944Z,56.97
2018-07-07T06:12:33.569Z,56.95
2018-07-07T06:15:02.292Z,57.62
2018-07-07T06:17:30.883Z,57.63
2018-07-07T06:19:59.615Z,58.42
2018-07-07T06:22:28.333Z,57.91
2018-07-07T06:24:56.876Z,57.53
2018-07-07T06:27:25.491Z,57.32
2018-07-07T06:29:54.547Z,57.31
2018-07-07T06:32:23.351Z,57.35
2018-07-07T06:34:52.082Z,57.89
2018-07-07T06:37:20.981Z,56.81
2018-07-07T06:39:49.542Z,56.70
2018-07-07T06:42:18.145Z,56.37
2018-07-07T06:44:46.855Z,56.89
2018-07-07T06:47:15.438Z,56.38
2018-07-07T06:49:44.232Z,56.63
2018-07-07T06:52:12.926Z,56.69
2018-07-07T06:54:41.581Z,56.27
2018-07-07T06:57:10.209Z,55.58
2018-07-07T06:59:38.950Z,55.07
2018-07-07T07:02:07.698Z,54.88
2018-07-07T07:04:36.349Z,54.19
2018-07-07T07:07:05.031Z,54.55
2018-07-07T07:09:33.749Z,54.91
2018-07-07T07:12:02.462Z,54.56
2018-07-07T07:14:31.137Z,55.54
2018-07-07T07:16:59.764Z,55.07
2018-07-07T07:19:28.470Z,54.95
2018-07-07T07:21:57.378Z,55.56
2018-07-07T07:24:26.000Z,54.92
2018-07-07T07:26:54.611Z,53.97
2018-07-07T07:29:23.266Z,53.69
2018-07-07T07:31:51.989Z,54.16
2018-07-07T07:34:20.601Z,53.86
2018-07-07T07:36:49.640Z,54.26
2018-07-07T07:39:18.306Z,53.95
2018-07-07T07:41:47.113Z,53.14
2018-07-07T07:44:15.733Z,53.43
2018-07-07T07:46:44.411Z,53.33
2018-07-07T07:49:13.148Z,52.82
2018-07-07T07:51:42.130Z,53.51
2018-07-07T07:54:10.778Z,53.68
2018-07-07T07:56:39.675Z,53.60
2018-07-07T07:59:08.395Z,53.72
2018-07-07T08:01:37.012Z,53.57
2018-07-07T08:04:05.787Z,53.40
2018-07-07T08:06:34.496Z,53.61
2018-07-07T08:09:03.134Z,52.78
2018-07-07T08:11:31.894Z,52.49
2018-07-07T08:14:00.658Z,52.90
2018-07-07T08:16:29.478Z,53.01
2018-07-07T08:18:58.146Z,53.16
2018-07-07T08:21:26.753Z,52.75
2018-07-07T08:23:56.154Z,52.81
2018-07-07T08:26:24.782Z,52.68
2018-07-07T08:28:53.850Z,53.15
2018-07-07T08:31:22.696Z,52.41
2018-07-07T08:33:51.318Z,51.98
2018-07-07T08:36:20.020Z,52.93
2018-07-07T08:38:49.691Z,51.71
2018-07-07T08:41:18.487Z,52.31
2018-07-07T08:43:47.254Z,51.84
2018-07-07T08:46:15.860Z,52.94
2018-07-07T08:48:44.485Z,53.01
2018-07-07T08:51:13.190Z,52.79
2018-07-07T08:53:42.161Z,51.36
2018-07-07T08:56:10.829Z,51.69
2018-07-07T08:58:39.571Z,50.33
2018-07-07T09:01:08.212Z,49.30
2018-07-07T09:03:36.974Z,48.85
2018-07-07T09:06:05.964Z,49.48
2018-07-07T09:08:34.619Z,49.62
2018-07-07T09:11:03.308Z,49.16
2018-07-07T09:13:32.084Z,49.12
2018-07-07T09:16:00.736Z,49.28
2018-07-07T09:18:29.544Z,49.06
2018-07-07T09:20:58.230Z,49.16
2018-07-07T09:23:26.893Z,48.60
2018-07-07T09:25:55.500Z,47.66
2018-07-07T09:28:24.157Z,47.33
2018-07-07T09:30:52.815Z,47.47
2018-07-07T09:33:21.621Z,48.82
2018-07-07T09:35:50.256Z,48.83
2018-07-07T09:38:19.184Z,47.72
2018-07-07T09:40:47.871Z,48.19
2018-07-07T09:43:16.633Z,48.28
2018-07-07T09:45:45.394Z,46.52
2018-07-07T09:48:14.040Z,47.22
2018-07-07T09:50:42.683Z,46.22
2018-07-07T09:53:11.325Z,47.77
2018-07-07T09:55:40.133Z,47.48
2018-07-07T09:58:08.917Z,47.21
2018-07-07T10:00:42.470Z,47.25
2018-07-07T10:03:17.702Z,47.47
2018-07-07T10:05:46.356Z,47.47
2018-07-07T10:08:15.005Z,46.41
2018-07-07T10:10:44.110Z,46.56
2018-07-07T10:13:12.734Z,45.97
2018-07-07T10:15:41.470Z,47.12
2018-07-07T10:18:10.153Z,47.45
2018-07-07T10:20:38.983Z,46.90
2018-07-07T10:23:07.747Z,47.74
2018-07-07T10:25:36.429Z,47.76
2018-07-07T10:28:05.010Z,47.92
2018-07-07T10:30:33.780Z,48.41
2018-07-07T10:33:02.476Z,48.69
2018-07-07T10:35:31.301Z,49.04
2018-07-07T10:38:00.081Z,48.65
2018-07-07T10:40:28.795Z,49.14
2018-07-07T10:42:57.450Z,49.14
2018-07-07T10:45:26.155Z,49.11
2018-07-07T10:47:54.858Z,49.16
2018-07-07T10:50:23.500Z,49.27
2018-07-07T10:52:52.343Z,49.66
2018-07-07T10:55:21.155Z,49.75
2018-07-07T10:57:49.980Z,49.77
2018-07-07T11:00:24.918Z,49.41
2018-07-07T11:02:53.617Z,49.54
2018-07-07T11:05:22.525Z,49.37
2018-07-07T11:07:51.173Z,49.58
2018-07-07T11:10:20.113Z,49.48
2018-07-07T11:12:48.662Z,48.94
2018-07-07T11:15:17.277Z,49.59
2018-07-07T11:17:46.107Z,49.80
2018-07-07T11:20:14.804Z,49.94
2018-07-07T11:22:43.447Z,49.88
2018-07-07T11:25:12.036Z,49.76
2018-07-07T11:27:40.760Z,49.49
2018-07-07T11:30:09.373Z,49.52
2018-07-07T11:32:38.199Z,48.94
2018-07-07T11:35:06.885Z,49.03
2018-07-07T11:37:35.483Z,48.15
2018-07-07T11:40:04.198Z,48.73
2018-07-07T11:42:32.887Z,47.08
2018-07-07T11:45:01.511Z,47.02
2018-07-07T11:47:30.194Z,46.10
2018-07-07T11:49:59.039Z,46.56
2018-07-07T11:52:27.796Z,45.77
2018-07-07T11:54:56.469Z,45.96
2018-07-07T11:57:25.111Z,46.28
2018-07-07T11:59:53.845Z,45.49
2018-07-07T12:02:22.462Z,45.76
2018-07-07T12:04:51.454Z,46.06
2018-07-07T12:07:20.003Z,46.37
2018-07-07T12:09:48.795Z,46.09
2018-07-07T12:12:23.874Z,46.85
2018-07-07T12:14:52.939Z,46.71
2018-07-07T12:17:21.623Z,47.00
2018-07-07T12:19:50.207Z,46.51
2018-07-07T12:22:18.868Z,45.50
2018-07-07T12:24:47.539Z,43.33
2018-07-07T12:27:16.185Z,43.56
2018-07-07T12:29:44.851Z,42.62
2018-07-07T12:32:13.647Z,42.35
2018-07-07T12:34:42.461Z,42.24
2018-07-07T12:37:11.142Z,41.06
2018-07-07T12:39:40.008Z,41.73
2018-07-07T12:42:08.752Z,41.62
2018-07-07T12:44:37.813Z,41.27
2018-07-07T12:47:06.745Z,42.00
2018-07-07T12:49:35.323Z,42.80
2018-07-07T12:52:04.073Z,43.48
2018-07-07T12:54:32.805Z,43.08
2018-07-07T12:57:01.417Z,43.80
2018-07-07T12:59:30.133Z,43.45
2018-07-07T13:01:58.816Z,43.58
2018-07-07T13:04:27.444Z,43.72
2018-07-07T13:06:56.100Z,44.24
2018-07-07T13:09:25.067Z,44.44
2018-07-07T13:11:53.748Z,45.21
2018-07-07T13:14:22.564Z,45.78
2018-07-07T13:16:51.443Z,46.05
2018-07-07T13:19:20.086Z,46.83
2018-07-07T13:21:48.761Z,46.76
2018-07-07T13:24:17.483Z,46.79
2018-07-07T13:26:46.231Z,46.65
2018-07-07T13:29:14.877Z,46.39
2018-07-07T13:31:43.720Z,46.31
2018-07-07T13:34:12.408Z,47.01
2018-07-07T13:36:41.304Z,48.12
2018-07-07T13:39:10.131Z,47.58
2018-07-07T13:41:38.885Z,48.66
2018-07-07T13:44:07.515Z,48.96
2018-07-07T13:46:36.205Z,49.44
2018-07-07T13:49:04.885Z,49.53
2018-07-07T13:51:33.634Z,49.80
2018-07-07T13:54:02.322Z,46.95
2018-07-07T13:56:30.975Z,42.96
2018-07-07T13:58:59.761Z,44.68
2018-07-07T14:01:28.556Z,46.06
2018-07-07T14:03:57.138Z,46.80
2018-07-07T14:06:25.728Z,46.88
2018-07-07T14:08:54.543Z,48.42
2018-07-07T14:11:23.307Z,48.75
2018-07-07T14:13:52.104Z,48.94
2018-07-07T14:16:20.771Z,48.52
2018-07-07T14:18:49.429Z,49.52
2018-07-07T14:21:18.133Z,49.45
2018-07-07T14:23:46.729Z,49.87
2018-07-07T14:26:15.377Z,50.49
2018-07-07T14:28:44.040Z,51.09
2018-07-07T14:31:12.743Z,51.49
2018-07-07T14:33:41.335Z,50.95
2018-07-07T14:36:09.978Z,51.65
2018-07-07T14:38:38.928Z,51.58
2018-07-07T14:41:16.509Z,52.12
2018-07-07T14:43:54.215Z,51.39
2018-07-07T14:46:23.243Z,52.07
2018-07-07T14:48:52.358Z,52.56
2018-07-07T14:51:21.016Z,52.44
2018-07-07T14:53:49.801Z,52.24
2018-07-07T14:56:19.792Z,52.22
2018-07-07T14:58:48.773Z,52.67
2018-07-07T15:01:17.519Z,52.65
2018-07-07T15:03:46.451Z,51.95
2018-07-07T15:06:15.079Z,50.04
2018-07-07T15:08:43.912Z,50.83
2018-07-07T15:11:12.690Z,47.32
2018-07-07T15:13:41.288Z,48.70
2018-07-07T15:16:09.991Z,50.04
2018-07-07T15:18:38.753Z,50.97
2018-07-07T15:21:07.392Z,51.13
2018-07-07T15:23:36.117Z,51.61
2018-07-07T15:26:04.879Z,50.02
2018-07-07T15:28:34.097Z,48.13
2018-07-07T15:31:02.835Z,47.62
2018-07-07T15:33:31.575Z,47.91
2018-07-07T15:36:00.235Z,48.76
2018-07-07T15:38:29.003Z,49.33
2018-07-07T15:40:57.615Z,49.18
2018-07-07T15:43:26.514Z,48.96
2018-07-07T15:45:55.419Z,48.59
2018-07-07T15:48:24.049Z,48.59
2018-07-07T15:50:53.098Z,49.39
2018-07-07T15:53:21.784Z,49.48
2018-07-07T15:55:50.513Z,48.83
2018-07-07T15:58:19.112Z,48.19
2018-07-07T16:00:47.828Z,48.43
2018-07-07T16:03:16.784Z,48.53
2018-07-07T16:05:45.607Z,48.01
2018-07-07T16:08:14.247Z,49.25
2018-07-07T16:10:42.861Z,48.77
2018-07-07T16:13:11.561Z,49.22
2018-07-07T16:15:40.304Z,49.74
2018-07-07T16:18:09.001Z,50.23
2018-07-07T16:20:37.734Z,50.30
2018-07-07T16:23:06.381Z,50.34
2018-07-07T16:25:35.097Z,50.54
2018-07-07T16:28:03.856Z,50.57
2018-07-07T16:30:32.435Z,51.12
2018-07-07T16:33:01.074Z,51.48
2018-07-07T16:35:29.735Z,50.97
2018-07-07T16:37:58.419Z,52.07
2018-07-07T16:40:27.119Z,52.19
2018-07-07T16:42:55.907Z,51.60
2018-07-07T16:45:24.656Z,51.70
2018-07-07T16:47:53.637Z,52.12
2018-07-07T16:50:22.370Z,52.98
2018-07-07T16:52:51.155Z,53.00
2018-07-07T16:55:19.754Z,52.89
2018-07-07T16:57:48.495Z,53.07
2018-07-07T17:00:17.253Z,52.91
2018-07-07T17:02:45.874Z,53.12
2018-07-07T17:05:15.045Z,53.38
2018-07-07T17:07:43.804Z,53.34
2018-07-07T17:10:12.621Z,53.46
2018-07-07T17:12:41.820Z,53.48
2018-07-07T17:15:10.518Z,53.51
2018-07-07T17:17:39.369Z,53.88
2018-07-07T17:20:08.430Z,53.86
2018-07-07T17:22:37.514Z,54.01
2018-07-07T17:25:06.110Z,54.42
2018-07-07T17:27:34.840Z,54.24
2018-07-07T17:30:03.533Z,54.64
2018-07-07T17:32:32.167Z,54.08
2018-07-07T17:35:01.766Z,54.57
2018-07-07T17:37:30.468Z,54.54
2018-07-07T17:39:59.097Z,54.39
2018-07-07T17:42:27.862Z,55.03
2018-07-07T17:44:56.959Z,54.75
2018-07-07T17:47:25.636Z,54.94
2018-07-07T17:49:54.510Z,54.97
2018-07-07T17:52:23.472Z,55.10
2018-07-07T17:54:52.321Z,55.23
2018-07-07T17:57:20.997Z,55.40
2018-07-07T17:59:49.638Z,54.87
2018-07-07T18:02:18.276Z,55.24
2018-07-07T18:04:47.141Z,55.35
2018-07-07T18:07:16.017Z,55.04
2018-07-07T18:09:44.603Z,55.07
2018-07-07T18:12:13.215Z,55.17
2018-07-07T18:14:41.997Z,55.31
2018-07-07T18:17:10.602Z,55.65
2018-07-07T18:19:39.415Z,55.44
2018-07-07T18:22:08.109Z,55.92
2018-07-07T18:24:36.710Z,55.59
2018-07-07T18:27:05.355Z,55.97
2018-07-07T18:29:34.039Z,55.72
2018-07-07T18:32:02.680Z,55.37
2018-07-07T18:34:31.336Z,55.24
2018-07-07T18:36:59.989Z,55.14
2018-07-07T18:39:28.747Z,55.48
2018-07-07T18:41:57.416Z,55.39
2018-07-07T18:44:26.112Z,55.00
2018-07-07T18:46:54.989Z,54.93
2018-07-07T18:49:23.791Z,54.69
2018-07-07T18:51:52.414Z,54.70
2018-07-07T18:54:21.099Z,55.22
2018-07-07T18:56:49.914Z,55.08
2018-07-07T18:59:18.847Z,55.04
2018-07-07T19:01:47.590Z,55.02
2018-07-07T19:04:16.628Z,54.99
2018-07-07T19:06:45.303Z,55.01
2018-07-07T19:09:14.091Z,55.10
2018-07-07T19:11:42.657Z,55.09
2018-07-07T19:14:11.394Z,54.57
2018-07-07T19:16:40.157Z,54.95
2018-07-07T19:19:08.862Z,54.41
2018-07-07T19:21:42.829Z,54.71
2018-07-07T19:24:16.734Z,54.46
2018-07-07T19:26:50.510Z,54.56
2018-07-07T19:29:19.792Z,54.39
2018-07-07T19:31:53.657Z,54.17
2018-07-07T19:34:27.619Z,54.28
2018-07-07T19:37:01.778Z,53.96
2018-07-07T19:39:30.471Z,54.06
2018-07-07T19:41:59.202Z,54.20
2018-07-07T19:44:27.862Z,53.87
2018-07-07T19:46:56.990Z,53.54
2018-07-07T19:49:25.734Z,53.76
2018-07-07T19:51:54.427Z,53.72
2018-07-07T19:54:23.044Z,54.16
2018-07-07T19:56:51.691Z,53.82
2018-07-07T19:59:20.422Z,53.58
2018-07-07T20:01:49.201Z,53.96
2018-07-07T20:04:18.058Z,53.66
2018-07-07T20:06:46.677Z,53.71
2018-07-07T20:09:15.569Z,54.23
2018-07-07T20:11:44.189Z,54.26
2018-07-07T20:14:18.239Z,54.04
2018-07-07T20:17:01.854Z,53.73
2018-07-07T20:20:42.635Z,53.92
2018-07-07T20:23:14.487Z,53.79
2018-07-07T20:25:47.256Z,53.72
2018-07-07T20:28:21.335Z,53.34
2018-07-07T20:30:49.969Z,53.13
2018-07-07T20:33:18.593Z,53.50
2018-07-07T20:35:47.635Z,53.53
2018-07-07T20:38:16.320Z,53.62
2018-07-07T20:40:44.947Z,53.71
2018-07-07T20:43:13.562Z,53.19
2018-07-07T20:45:43.112Z,53.03
2018-07-07T20:48:11.782Z,53.26
2018-07-07T20:50:40.629Z,53.14
2018-07-07T20:53:09.332Z,53.52
2018-07-07T20:55:38.132Z,53.10
2018-07-07T20:58:06.975Z,53.44
2018-07-07T21:00:35.596Z,53.32
2018-07-07T21:03:04.277Z,53.44
2018-07-07T21:05:33.053Z,53.47
2018-07-07T21:08:01.733Z,53.28
2018-07-07T21:10:30.446Z,53.78
2018-07-07T21:12:59.152Z,53.34
2018-07-07T21:15:27.901Z,53.09
2018-07-07T21:17:56.576Z,53.50
2018-07-07T21:20:25.242Z,53.65
2018-07-07T21:22:53.964Z,53.29
2018-07-07T21:25:22.613Z,53.38
2018-07-07T21:27:51.276Z,53.41
2018-07-07T21:30:20.072Z,53.57
2018-07-07T21:32:48.665Z,53.70
2018-07-07T21:35:17.295Z,53.63
2018-07-07T21:37:46.006Z,53.63
2018-07-07T21:40:14.801Z,53.55
2018-07-07T21:42:43.649Z,53.76
2018-07-07T21:45:12.335Z,53.33
2018-07-07T21:47:41.042Z,53.43
2018-07-07T21:50:09.740Z,53.70
2018-07-07T21:52:38.431Z,54.01
2018-07-07T21:55:07.360Z,53.53
2018-07-07T21:57:41.327Z,53.90
2018-07-07T22:00:10.068Z,53.89
2018-07-07T22:02:44.018Z,54.15
2018-07-07T22:05:17.738Z,53.73
2018-07-07T22:07:46.385Z,53.45
2018-07-07T22:10:15.139Z,53.75
2018-07-07T22:12:44.046Z,53.84
2018-07-07T22:15:12.975Z,54.10
2018-07-07T22:17:41.689Z,53.82
2018-07-07T22:20:10.484Z,53.92
2018-07-07T22:22:39.256Z,54.03
2018-07-07T22:25:08.016Z,54.49
2018-07-07T22:27:36.756Z,53.97
2018-07-07T22:30:05.458Z,54.20
2018-07-07T22:32:39.289Z,54.52
2018-07-07T22:35:13.094Z,54.44
2018-07-07T22:37:41.889Z,54.28
2018-07-07T22:40:10.544Z,54.24
2018-07-07T22:42:39.360Z,54.60
2018-07-07T22:45:08.176Z,54.69
2018-07-07T22:47:36.842Z,54.87
2018-07-07T22:50:05.495Z,54.76
2018-07-07T22:52:34.263Z,54.83
2018-07-07T22:55:02.910Z,54.57
2018-07-07T22:57:31.677Z,54.89
2018-07-07T23:00:00.339Z,54.67
2018-07-07T23:02:29.429Z,54.81
2018-07-07T23:04:58.508Z,54.81
2018-07-07T23:07:27.167Z,54.89
2018-07-07T23:09:55.878Z,55.19
2018-07-07T23:12:24.472Z,55.27
2018-07-07T23:14:53.209Z,55.51
2018-07-07T23:17:21.890Z,55.46
2018-07-07T23:19:50.616Z,55.50
2018-07-07T23:22:28.263Z,55.35
2018-07-07T23:24:57.251Z,55.14
2018-07-07T23:27:25.932Z,55.83
2018-07-07T23:29:54.648Z,55.39
2018-07-07T23:32:23.222Z,55.67
2018-07-07T23:34:51.863Z,55.79
2018-07-07T23:37:20.502Z,56.13
2018-07-07T23:39:49.138Z,56.16
2018-07-07T23:42:17.854Z,56.01
2018-07-07T23:44:46.577Z,56.09
2018-07-07T23:47:15.128Z,56.08
2018-07-07T23:49:43.889Z,56.53
2018-07-07T23:52:12.484Z,56.38
2018-07-07T23:54:41.253Z,56.58
2018-07-07T23:57:09.952Z,56.38
2018-07-07T23:59:38.607Z,56.91
